createdAt,value
2022-09-30T00:01:36.611Z,9.51
2022-09-30T00:04:05.330Z,9.49
2022-09-30T00:06:36.220Z,9.40
2022-09-30T00:09:05.630Z,9.48
2022-09-30T00:11:35.805Z,9.48
2022-09-30T00:14:04.428Z,9.49
2022-09-30T00:16:35.435Z,9.49
2022-09-30T00:19:05.662Z,9.53
2022-09-30T00:21:35.599Z,9.49
2022-09-30T00:24:05.127Z,9.46
2022-09-30T00:26:34.143Z,9.47
2022-09-30T00:29:02.799Z,9.43
2022-09-30T00:31:33.438Z,9.44
2022-09-30T00:34:11.779Z,9.46
2022-09-30T00:36:44.719Z,9.50
2022-09-30T00:39:15.298Z,9.53
2022-09-30T00:41:43.791Z,9.48
2022-09-30T00:44:51.185Z,9.46
2022-09-30T00:47:39.675Z,9.49
2022-09-30T00:50:27.799Z,9.42
2022-09-30T00:53:01.192Z,9.39
2022-09-30T00:55:32.363Z,9.40
2022-09-30T00:58:01.190Z,9.37
2022-09-30T01:00:29.445Z,9.40
2022-09-30T01:02:58.021Z,9.37
2022-09-30T01:05:27.743Z,9.41
2022-09-30T01:07:59.587Z,9.41
2022-09-30T01:10:27.787Z,9.47
2022-09-30T01:12:56.254Z,9.40
2022-09-30T01:15:34.468Z,9.39
2022-09-30T01:18:07.627Z,9.40
2022-09-30T01:20:56.195Z,9.37
2022-09-30T01:23:51.465Z,9.35
2022-09-30T01:26:36.135Z,9.29
2022-09-30T01:29:48.819Z,9.23
2022-09-30T01:32:26.351Z,9.23
2022-09-30T01:35:01.588Z,9.20
2022-09-30T01:37:40.587Z,9.17
2022-09-30T01:40:15.474Z,9.16
2022-09-30T01:42:58.248Z,9.17
2022-09-30T01:45:35.190Z,9.17
2022-09-30T01:48:08.339Z,9.18
2022-09-30T01:50:44.936Z,9.20
2022-09-30T01:53:19.086Z,9.27
2022-09-30T01:55:50.487Z,9.27
2022-09-30T01:58:26.851Z,9.22
2022-09-30T02:00:57.768Z,9.24
2022-09-30T02:03:31.389Z,9.22
2022-09-30T02:06:04.164Z,9.21
2022-09-30T02:08:36.562Z,9.23
2022-09-30T02:11:09.316Z,9.16
2022-09-30T02:13:41.083Z,9.11
2022-09-30T02:16:34.974Z,9.14
2022-09-30T02:19:10.918Z,9.14
2022-09-30T02:21:41.818Z,9.13
2022-09-30T02:24:12.325Z,9.15
2022-09-30T02:26:42.606Z,9.19
2022-09-30T02:29:15.762Z,9.23
2022-09-30T02:31:45.800Z,9.21
2022-09-30T02:34:17.524Z,9.17
2022-09-30T02:36:48.387Z,9.13
2022-09-30T02:39:22.985Z,9.12
2022-09-30T02:41:54.812Z,9.15
2022-09-30T02:44:23.163Z,9.11
2022-09-30T02:46:56.617Z,9.02
2022-09-30T02:49:31.201Z,9.09
2022-09-30T02:52:09.410Z,9.02
2022-09-30T02:54:40.687Z,8.92
2022-09-30T02:57:19.546Z,8.98
2022-09-30T02:59:51.398Z,9.00
2022-09-30T03:02:19.877Z,9.00
2022-09-30T03:04:51.037Z,9.02
2022-09-30T03:07:19.699Z,8.98
2022-09-30T03:09:47.916Z,9.01
2022-09-30T03:12:23.747Z,9.01
2022-09-30T03:15:16.571Z,8.99
2022-09-30T03:17:58.822Z,8.96
2022-09-30T03:20:37.605Z,8.99
2022-09-30T03:23:22.486Z,8.97
2022-09-30T03:25:58.208Z,8.97
2022-09-30T03:28:29.305Z,8.96
2022-09-30T03:31:05.659Z,8.92
2022-09-30T03:33:41.643Z,8.96
2022-09-30T03:36:15.622Z,8.99
2022-09-30T03:38:49.689Z,8.96
2022-09-30T03:41:22.148Z,8.96
2022-09-30T03:43:52.589Z,8.99
2022-09-30T03:46:24.748Z,8.96
2022-09-30T03:48:55.521Z,8.93
2022-09-30T03:51:26.147Z,8.96
2022-09-30T03:53:55.678Z,8.92
2022-09-30T03:56:28.438Z,8.92
2022-09-30T03:58:58.480Z,9.03
2022-09-30T04:01:26.956Z,9.01
2022-09-30T04:03:55.417Z,8.96
2022-09-30T04:06:26.629Z,9.06
2022-09-30T04:08:55.118Z,8.97
2022-09-30T04:11:23.398Z,8.94
2022-09-30T04:13:51.799Z,8.91
2022-09-30T04:16:20.278Z,8.94
2022-09-30T04:18:48.627Z,8.94
2022-09-30T04:21:17.459Z,8.96
2022-09-30T04:23:47.085Z,8.92
2022-09-30T04:26:17.512Z,8.97
2022-09-30T04:28:46.135Z,8.95
2022-09-30T04:31:17.910Z,9.00
2022-09-30T04:33:46.498Z,9.02
2022-09-30T04:36:14.753Z,9.07
2022-09-30T04:38:43.119Z,9.08
2022-09-30T04:41:18.055Z,9.07
2022-09-30T04:43:47.963Z,9.04
2022-09-30T04:46:16.448Z,9.06
2022-09-30T04:48:45.931Z,9.09
2022-09-30T04:51:14.465Z,9.07
2022-09-30T04:53:42.708Z,9.09
2022-09-30T04:56:12.613Z,9.10
2022-09-30T04:58:40.990Z,9.09
2022-09-30T05:01:11.254Z,9.11
2022-09-30T05:03:40.381Z,9.22
2022-09-30T05:06:09.386Z,9.20
2022-09-30T05:08:38.831Z,9.21
2022-09-30T05:11:15.045Z,9.37
2022-09-30T05:13:43.271Z,9.37
2022-09-30T05:16:12.202Z,9.42
2022-09-30T05:18:42.473Z,9.48
2022-09-30T05:21:11.932Z,9.49
2022-09-30T05:23:40.560Z,9.66
2022-09-30T05:26:12.155Z,9.75
2022-09-30T05:28:42.783Z,9.82
2022-09-30T05:31:12.565Z,9.79
2022-09-30T05:33:41.979Z,9.80
2022-09-30T05:36:13.984Z,9.82
2022-09-30T05:38:42.571Z,9.80
2022-09-30T05:41:12.442Z,9.88
2022-09-30T05:43:43.064Z,9.80
2022-09-30T05:46:11.194Z,9.82
2022-09-30T05:48:39.352Z,9.83
2022-09-30T05:51:08.031Z,9.83
2022-09-30T05:53:38.773Z,9.84
2022-09-30T05:56:07.835Z,9.95
2022-09-30T05:58:36.509Z,9.92
2022-09-30T06:01:13.120Z,9.91
2022-09-30T06:03:42.270Z,9.99
2022-09-30T06:06:11.301Z,10.04
2022-09-30T06:08:40.392Z,10.14
2022-09-30T06:11:13.260Z,10.25
2022-09-30T06:13:41.999Z,10.28
2022-09-30T06:16:12.655Z,10.47
2022-09-30T06:18:42.086Z,10.76
2022-09-30T06:21:12.253Z,10.93
2022-09-30T06:23:40.983Z,11.13
2022-09-30T06:26:11.928Z,11.25
2022-09-30T06:28:40.300Z,11.30
2022-09-30T06:31:08.735Z,11.40
2022-09-30T06:33:38.705Z,11.44
2022-09-30T06:36:07.289Z,11.43
2022-09-30T06:38:37.337Z,11.56
2022-09-30T06:41:06.079Z,11.65
2022-09-30T06:43:42.777Z,11.80
2022-09-30T06:46:29.843Z,11.80
2022-09-30T06:49:23.272Z,11.86
2022-09-30T06:51:49.729Z,11.68
2022-09-30T06:54:19.451Z,11.71
2022-09-30T06:56:48.336Z,11.76
2022-09-30T06:59:17.341Z,11.86
2022-09-30T07:01:45.599Z,11.98
2022-09-30T07:04:15.579Z,12.12
2022-09-30T07:06:44.169Z,12.15
2022-09-30T07:09:12.895Z,12.36
2022-09-30T07:11:41.692Z,12.82
2022-09-30T07:14:10.475Z,13.60
2022-09-30T07:16:38.753Z,13.53
2022-09-30T07:19:10.319Z,13.16
2022-09-30T07:21:40.095Z,13.08
2022-09-30T07:24:09.421Z,12.92
2022-09-30T07:26:37.583Z,12.74
2022-09-30T07:29:07.494Z,12.60
2022-09-30T07:31:36.127Z,12.68
2022-09-30T07:34:07.319Z,12.59
2022-09-30T07:36:37.273Z,12.72
2022-09-30T07:39:10.575Z,12.80
2022-09-30T07:41:39.717Z,12.85
2022-09-30T07:44:10.047Z,12.85
2022-09-30T07:46:40.682Z,12.75
2022-09-30T07:49:10.790Z,12.90
2022-09-30T07:51:41.370Z,13.04
2022-09-30T07:54:13.884Z,13.08
2022-09-30T07:57:12.415Z,13.06
2022-09-30T07:59:35.544Z,12.97
2022-09-30T08:02:04.503Z,12.97
2022-09-30T08:04:32.879Z,13.03
2022-09-30T08:07:04.919Z,13.09
2022-09-30T08:09:35.088Z,13.21
2022-09-30T08:12:04.764Z,13.19
2022-09-30T08:14:33.139Z,13.13
2022-09-30T08:17:01.500Z,13.14
2022-09-30T08:19:31.189Z,13.21
2022-09-30T08:21:59.789Z,13.34
2022-09-30T08:24:28.237Z,13.38
2022-09-30T08:26:58.027Z,13.38
2022-09-30T08:32:14.540Z,13.79
2022-09-30T08:34:42.758Z,15.03
2022-09-30T08:37:11.266Z,15.79
2022-09-30T08:39:39.856Z,15.42
2022-09-30T08:42:37.984Z,14.58
2022-09-30T08:45:17.291Z,14.50
2022-09-30T08:47:49.665Z,14.53
2022-09-30T08:50:22.102Z,14.77
2022-09-30T08:52:52.138Z,15.03
2022-09-30T08:55:23.558Z,15.10
2022-09-30T08:57:54.024Z,15.17
2022-09-30T09:00:23.197Z,15.11
2022-09-30T09:02:54.585Z,15.19
2022-09-30T09:05:32.530Z,15.12
2022-09-30T09:08:05.469Z,15.02
2022-09-30T09:10:40.818Z,14.77
2022-09-30T09:13:20.372Z,14.73
2022-09-30T09:15:55.756Z,14.49
2022-09-30T09:18:39.702Z,14.66
2022-09-30T09:21:19.743Z,14.58
2022-09-30T09:23:48.502Z,14.54
2022-09-30T09:26:17.140Z,14.49
2022-09-30T09:28:58.947Z,14.69
2022-09-30T09:31:27.572Z,14.68
2022-09-30T09:33:58.151Z,14.68
2022-09-30T09:36:35.442Z,14.59
2022-09-30T09:39:12.722Z,14.58
2022-09-30T09:41:45.641Z,14.49
2022-09-30T09:44:20.776Z,14.55
2022-09-30T09:46:52.069Z,14.59
2022-09-30T09:49:32.109Z,14.69
2022-09-30T09:52:22.267Z,14.79
2022-09-30T09:54:53.081Z,15.04
2022-09-30T09:57:25.955Z,15.48
2022-09-30T10:02:31.879Z,16.02
2022-09-30T10:05:04.003Z,15.92
2022-09-30T10:07:34.523Z,15.71
2022-09-30T10:10:13.964Z,15.47
2022-09-30T10:12:43.144Z,15.42
2022-09-30T10:15:23.235Z,15.45
2022-09-30T10:17:54.370Z,15.47
2022-09-30T10:20:28.961Z,15.52
2022-09-30T10:23:09.195Z,15.57
2022-09-30T10:25:37.650Z,15.51
2022-09-30T10:28:22.178Z,15.56
2022-09-30T10:30:54.780Z,15.90
2022-09-30T10:33:27.789Z,16.31
2022-09-30T10:36:05.078Z,16.29
2022-09-30T10:38:34.991Z,16.42
2022-09-30T10:41:04.950Z,16.24
2022-09-30T10:43:37.349Z,16.07
2022-09-30T10:46:25.105Z,16.28
2022-09-30T10:48:56.150Z,16.00
2022-09-30T10:51:36.401Z,15.86
2022-09-30T10:54:05.714Z,15.96
2022-09-30T10:56:40.613Z,16.15
2022-09-30T10:59:20.096Z,15.95
2022-09-30T11:01:55.203Z,16.06
2022-09-30T11:04:29.626Z,16.03
2022-09-30T11:07:02.518Z,15.95
2022-09-30T11:09:36.045Z,16.02
2022-09-30T11:12:11.691Z,16.09
2022-09-30T11:14:44.699Z,16.19
2022-09-30T11:17:31.135Z,16.28
2022-09-30T11:20:09.303Z,16.43
2022-09-30T11:22:43.630Z,16.45
2022-09-30T11:25:15.948Z,16.56
2022-09-30T11:27:54.419Z,16.90
2022-09-30T11:30:26.104Z,16.73
2022-09-30T11:33:06.802Z,16.54
2022-09-30T11:35:46.071Z,16.45
2022-09-30T11:38:29.929Z,16.45
2022-09-30T11:41:05.079Z,16.44
2022-09-30T11:43:43.403Z,16.44
2022-09-30T11:46:32.595Z,16.46
2022-09-30T11:49:12.353Z,16.36
2022-09-30T11:51:48.112Z,16.37
2022-09-30T11:54:28.919Z,16.41
2022-09-30T11:57:00.575Z,16.56
2022-09-30T11:59:32.372Z,16.43
2022-09-30T12:02:03.128Z,16.62
2022-09-30T12:04:36.158Z,16.79
2022-09-30T12:07:07.492Z,16.93
2022-09-30T12:09:40.436Z,16.92
2022-09-30T12:12:16.293Z,16.95
2022-09-30T12:14:47.566Z,17.11
2022-09-30T12:17:28.126Z,17.19
2022-09-30T12:19:59.883Z,17.25
2022-09-30T12:22:31.271Z,16.86
2022-09-30T12:24:59.510Z,16.56
2022-09-30T12:27:35.045Z,16.55
2022-09-30T12:30:18.847Z,16.43
2022-09-30T12:33:14.200Z,16.40
2022-09-30T12:36:40.148Z,16.52
2022-09-30T12:39:44.711Z,16.48
2022-09-30T12:42:27.990Z,16.42
2022-09-30T12:45:29.927Z,16.57
2022-09-30T12:47:59.157Z,16.85
2022-09-30T12:50:30.232Z,16.94
2022-09-30T12:53:00.166Z,16.96
2022-09-30T12:55:31.392Z,16.91
2022-09-30T12:58:02.458Z,16.86
2022-09-30T13:00:34.848Z,16.81
2022-09-30T13:03:06.751Z,16.71
2022-09-30T13:05:59.523Z,16.67
2022-09-30T13:08:44.308Z,16.57
2022-09-30T13:11:42.084Z,16.49
2022-09-30T13:14:25.072Z,16.45
2022-09-30T13:17:36.435Z,16.34
2022-09-30T13:20:43.335Z,16.33
2022-09-30T13:23:39.861Z,16.30
2022-09-30T13:26:43.220Z,16.23
2022-09-30T13:29:40.073Z,16.19
2022-09-30T13:32:10.165Z,16.14
2022-09-30T13:34:58.643Z,16.14
2022-09-30T13:37:48.414Z,16.12
2022-09-30T13:40:32.920Z,16.12
2022-09-30T13:43:12.325Z,16.09
2022-09-30T13:45:42.509Z,16.01
2022-09-30T13:48:13.956Z,16.00
2022-09-30T13:50:47.789Z,15.99
2022-09-30T13:53:22.154Z,15.95
2022-09-30T13:55:53.995Z,15.98
2022-09-30T13:58:49.643Z,15.96
2022-09-30T14:01:30.181Z,15.95
2022-09-30T14:04:17.228Z,15.96
2022-09-30T14:06:51.280Z,16.02
2022-09-30T14:09:52.791Z,16.03
2022-09-30T14:12:31.137Z,15.97
2022-09-30T14:15:23.526Z,15.81
2022-09-30T14:18:30.185Z,15.88
2022-09-30T14:21:10.289Z,15.87
2022-09-30T14:23:38.797Z,15.86
2022-09-30T14:26:18.649Z,15.82
2022-09-30T14:28:50.257Z,15.74
2022-09-30T14:31:19.128Z,15.71
2022-09-30T14:33:50.169Z,15.70
2022-09-30T14:36:22.054Z,15.66
2022-09-30T14:38:54.162Z,15.64
2022-09-30T14:41:24.156Z,15.64
2022-09-30T14:43:55.439Z,15.62
2022-09-30T14:46:30.288Z,15.58
2022-09-30T14:49:02.121Z,15.56
2022-09-30T14:51:37.523Z,15.52
2022-09-30T14:54:06.513Z,15.45
2022-09-30T14:56:37.335Z,15.48
2022-09-30T14:59:18.012Z,15.44
2022-09-30T15:01:48.270Z,15.40
2022-09-30T15:04:18.539Z,15.37
2022-09-30T15:06:51.070Z,15.30
2022-09-30T15:09:27.358Z,15.28
2022-09-30T15:11:55.892Z,15.28
2022-09-30T15:14:25.228Z,15.25
2022-09-30T15:16:55.267Z,15.24
2022-09-30T15:19:25.450Z,15.25
2022-09-30T15:21:56.710Z,15.26
2022-09-30T15:24:27.425Z,15.24
2022-09-30T15:26:57.398Z,15.21
2022-09-30T15:29:25.735Z,15.17
2022-09-30T15:31:59.787Z,15.19
2022-09-30T15:34:29.286Z,15.16
2022-09-30T15:37:04.750Z,15.07
2022-09-30T15:39:47.798Z,15.07
2022-09-30T15:42:30.577Z,15.03
2022-09-30T15:44:59.911Z,15.03
2022-09-30T15:47:28.622Z,15.04
2022-09-30T15:49:56.973Z,15.02
2022-09-30T15:52:39.730Z,15.07
2022-09-30T15:55:36.690Z,15.03
2022-09-30T15:58:05.296Z,15.05
2022-09-30T16:00:36.761Z,15.07
2022-09-30T16:03:27.130Z,15.07
2022-09-30T16:05:56.015Z,15.03
2022-09-30T16:08:27.682Z,15.04
2022-09-30T16:10:58.589Z,15.05
2022-09-30T16:13:29.009Z,15.05
2022-09-30T16:15:58.815Z,15.05
2022-09-30T16:18:32.682Z,15.03
2022-09-30T16:21:04.916Z,14.97
2022-09-30T16:23:37.663Z,14.94
2022-09-30T16:26:24.592Z,14.92
2022-09-30T16:28:54.030Z,14.90
2022-09-30T16:31:22.551Z,14.87
2022-09-30T16:33:50.992Z,14.86
2022-09-30T16:36:19.365Z,14.84
2022-09-30T16:38:49.036Z,14.82
2022-09-30T16:41:17.407Z,14.82
2022-09-30T16:43:45.646Z,14.79
2022-09-30T16:46:14.218Z,14.82
2022-09-30T16:48:42.771Z,14.81
2022-09-30T16:51:15.006Z,14.79
2022-09-30T16:53:43.306Z,14.81
2022-09-30T16:56:16.294Z,14.79
2022-09-30T16:58:45.481Z,14.84
2022-09-30T17:01:18.647Z,14.80
2022-09-30T17:03:46.833Z,14.82
2022-09-30T17:06:15.290Z,14.76
2022-09-30T17:08:43.769Z,14.74
2022-09-30T17:11:12.312Z,14.74
2022-09-30T17:13:42.725Z,14.74
2022-09-30T17:16:11.278Z,14.75
2022-09-30T17:18:40.505Z,14.79
2022-09-30T17:21:08.757Z,14.79
2022-09-30T17:23:37.155Z,14.77
2022-09-30T17:26:06.162Z,14.75
2022-09-30T17:28:35.200Z,14.72
2022-09-30T17:31:05.677Z,14.72
2022-09-30T17:33:35.307Z,14.71
2022-09-30T17:36:05.455Z,14.69
2022-09-30T17:38:34.480Z,14.69
2022-09-30T17:41:20.543Z,14.68
2022-09-30T17:43:48.883Z,14.64
2022-09-30T17:46:21.529Z,14.62
2022-09-30T17:48:50.937Z,14.66
2022-09-30T17:51:19.280Z,14.62
2022-09-30T17:53:48.416Z,14.63
2022-09-30T17:56:19.600Z,14.61
2022-09-30T17:58:50.916Z,14.64
2022-09-30T18:01:21.989Z,14.67
2022-09-30T18:03:53.205Z,14.64
2022-09-30T18:06:21.821Z,14.60
2022-09-30T18:08:50.131Z,14.58
2022-09-30T18:11:21.750Z,14.55
2022-09-30T18:13:57.913Z,14.55
2022-09-30T18:16:30.627Z,14.50
2022-09-30T18:19:00.725Z,14.48
2022-09-30T18:21:29.514Z,14.48
2022-09-30T18:23:58.824Z,14.44
2022-09-30T18:26:33.057Z,14.41
2022-09-30T18:29:03.711Z,14.41
2022-09-30T18:31:37.814Z,14.38
2022-09-30T18:34:07.708Z,14.34
2022-09-30T18:36:37.610Z,14.35
2022-09-30T18:39:05.999Z,14.32
2022-09-30T18:41:35.968Z,14.29
2022-09-30T18:44:05.096Z,14.40
2022-09-30T18:46:34.942Z,14.26
2022-09-30T18:49:05.886Z,14.39
2022-09-30T18:51:34.665Z,14.40
2022-09-30T18:54:04.266Z,14.40
2022-09-30T18:56:33.497Z,14.36
2022-09-30T18:59:04.409Z,14.32
2022-09-30T19:01:36.139Z,14.35
2022-09-30T19:04:05.593Z,14.39
2022-09-30T19:06:35.017Z,14.41
2022-09-30T19:09:03.383Z,14.41
2022-09-30T19:11:32.682Z,14.39
2022-09-30T19:14:02.616Z,14.36
2022-09-30T19:16:36.639Z,14.36
2022-09-30T19:19:08.390Z,14.35
2022-09-30T19:21:36.995Z,14.36
2022-09-30T19:24:05.712Z,14.33
2022-09-30T19:26:36.452Z,14.33
2022-09-30T19:29:05.628Z,14.36
2022-09-30T19:31:36.211Z,14.35
2022-09-30T19:34:05.497Z,14.37
2022-09-30T19:36:48.863Z,14.37
2022-09-30T19:39:19.021Z,14.37
2022-09-30T19:41:47.501Z,14.31
2022-09-30T19:44:20.224Z,14.27
2022-09-30T19:46:50.439Z,14.33
2022-09-30T19:49:18.960Z,14.36
2022-09-30T19:51:50.515Z,14.61
2022-09-30T19:54:22.344Z,14.84
2022-09-30T19:56:55.028Z,14.76
2022-09-30T19:59:23.335Z,14.59
2022-09-30T20:01:52.330Z,14.54
2022-09-30T20:04:21.043Z,14.61
2022-09-30T20:06:53.807Z,14.58
2022-09-30T20:09:22.256Z,14.53
2022-09-30T20:11:50.490Z,14.53
2022-09-30T20:14:36.093Z,14.56
2022-09-30T20:17:04.437Z,14.44
2022-09-30T20:19:32.589Z,14.44
2022-09-30T20:22:02.293Z,14.47
2022-09-30T20:24:31.963Z,14.60
2022-09-30T20:27:00.161Z,14.49
2022-09-30T20:29:28.582Z,14.38
2022-09-30T20:31:58.603Z,14.33
2022-09-30T20:34:26.866Z,14.32
2022-09-30T20:36:55.416Z,14.32
2022-09-30T20:39:25.063Z,14.24
2022-09-30T20:41:56.170Z,14.26
2022-09-30T20:44:24.410Z,14.18
2022-09-30T20:46:52.886Z,14.34
2022-09-30T20:49:21.479Z,14.42
2022-09-30T20:51:49.914Z,14.36
2022-09-30T20:54:18.072Z,14.27
2022-09-30T20:57:06.807Z,14.45
2022-09-30T20:59:35.697Z,14.16
2022-09-30T21:02:04.470Z,14.07
2022-09-30T21:04:34.090Z,14.07
2022-09-30T21:07:02.450Z,14.03
2022-09-30T21:09:34.894Z,14.02
2022-09-30T21:12:04.700Z,14.04
2022-09-30T21:14:32.909Z,14.05
2022-09-30T21:17:01.226Z,14.10
2022-09-30T21:19:29.450Z,14.30
2022-09-30T21:21:57.797Z,14.19
2022-09-30T21:24:26.366Z,14.13
2022-09-30T21:26:55.998Z,14.14
2022-09-30T21:29:25.791Z,14.25
2022-09-30T21:31:54.095Z,14.34
2022-09-30T21:34:22.653Z,14.25
2022-09-30T21:36:50.940Z,14.25
2022-09-30T21:39:19.357Z,14.20
2022-09-30T21:41:47.737Z,14.14
2022-09-30T21:44:16.916Z,14.23
2022-09-30T21:46:48.801Z,14.24
2022-09-30T21:49:19.350Z,14.49
2022-09-30T21:51:48.049Z,14.36
2022-09-30T21:54:16.692Z,14.26
2022-09-30T21:56:45.078Z,14.25
2022-09-30T21:59:14.178Z,14.29
2022-09-30T22:01:42.383Z,14.35
2022-09-30T22:04:12.085Z,14.33
2022-09-30T22:06:40.678Z,14.44
2022-09-30T22:09:08.877Z,14.28
2022-09-30T22:11:37.280Z,14.17
2022-09-30T22:14:05.785Z,14.06
2022-09-30T22:16:36.012Z,14.04
2022-09-30T22:19:07.105Z,14.06
2022-09-30T22:21:38.072Z,14.14
2022-09-30T22:24:08.125Z,14.26
2022-09-30T22:26:37.219Z,14.21
2022-09-30T22:29:07.890Z,14.29
2022-09-30T22:31:36.597Z,14.25
2022-09-30T22:34:24.853Z,14.36
2022-09-30T22:37:12.104Z,14.40
2022-09-30T22:39:40.331Z,14.48
2022-09-30T22:42:08.638Z,14.57
2022-09-30T22:44:38.355Z,14.59
2022-09-30T22:47:08.439Z,14.44
2022-09-30T22:49:36.646Z,14.49
2022-09-30T22:52:06.964Z,14.67
2022-09-30T22:54:36.385Z,14.72
2022-09-30T22:57:05.699Z,14.57
2022-09-30T22:59:34.032Z,14.33
2022-09-30T23:02:02.264Z,14.29
2022-09-30T23:04:31.725Z,14.42
2022-09-30T23:07:02.156Z,14.50
2022-09-30T23:09:31.760Z,14.61
2022-09-30T23:12:00.619Z,14.75
2022-09-30T23:14:29.100Z,14.60
2022-09-30T23:16:57.331Z,14.43
2022-09-30T23:19:25.703Z,14.42
2022-09-30T23:21:53.985Z,14.48
2022-09-30T23:24:22.156Z,14.48
2022-09-30T23:26:51.793Z,14.39
2022-09-30T23:29:20.063Z,14.30
2022-09-30T23:31:48.300Z,14.25
2022-09-30T23:34:18.359Z,14.22
2022-09-30T23:36:47.108Z,14.16
2022-09-30T23:39:19.460Z,14.14
2022-09-30T23:41:48.448Z,14.18
2022-09-30T23:44:19.254Z,14.17
2022-09-30T23:47:01.704Z,14.19
2022-09-30T23:49:36.002Z,14.15
2022-09-30T23:52:08.019Z,14.18
2022-09-30T23:54:40.101Z,14.19
2022-09-30T23:57:08.595Z,14.16
2022-09-30T23:59:38.626Z,14.12
